sensor_id;sensor_type;location;lat;lon;timestamp;P1;durP1;ratioP1;P2;durP2;ratioP2
16892;SDS011;8563;52.242;9.098;2023-09-19T00:01:44;2.92;;;2.08;;
16892;SDS011;8563;52.242;9.098;2023-09-19T00:04:17;2.60;;;2.00;;
16892;SDS011;8563;52.242;9.098;2023-09-19T00:06:53;6.65;;;2.08;;
16892;SDS011;8563;52.242;9.098;2023-09-19T00:09:26;3.87;;;2.20;;
16892;SDS011;8563;52.242;9.098;2023-09-19T00:12:00;3.65;;;2.03;;
16892;SDS011;8563;52.242;9.098;2023-09-19T00:14:33;4.00;;;2.00;;
16892;SDS011;8563;52.242;9.098;2023-09-19T00:17:06;2.80;;;2.00;;
16892;SDS011;8563;52.242;9.098;2023-09-19T00:19:39;4.07;;;2.10;;
16892;SDS011;8563;52.242;9.098;2023-09-19T00:22:12;4.33;;;2.10;;
16892;SDS011;8563;52.242;9.098;2023-09-19T00:24:46;4.10;;;2.20;;
16892;SDS011;8563;52.242;9.098;2023-09-19T00:27:20;4.03;;;2.07;;
16892;SDS011;8563;52.242;9.098;2023-09-19T00:29:52;3.10;;;2.25;;
16892;SDS011;8563;52.242;9.098;2023-09-19T00:32:25;2.45;;;1.80;;
16892;SDS011;8563;52.242;9.098;2023-09-19T00:35:01;4.07;;;2.20;;
16892;SDS011;8563;52.242;9.098;2023-09-19T00:37:33;4.00;;;2.22;;
16892;SDS011;8563;52.242;9.098;2023-09-19T00:40:06;4.75;;;2.40;;
16892;SDS011;8563;52.242;9.098;2023-09-19T00:42:43;3.77;;;2.50;;
16892;SDS011;8563;52.242;9.098;2023-09-19T00:45:17;5.30;;;2.73;;
16892;SDS011;8563;52.242;9.098;2023-09-19T00:47:51;3.33;;;2.10;;
16892;SDS011;8563;52.242;9.098;2023-09-19T00:50:24;4.57;;;2.20;;
16892;SDS011;8563;52.242;9.098;2023-09-19T00:52:59;4.28;;;2.58;;
16892;SDS011;8563;52.242;9.098;2023-09-19T00:55:31;3.70;;;2.17;;
16892;SDS011;8563;52.242;9.098;2023-09-19T00:58:06;6.18;;;2.80;;
16892;SDS011;8563;52.242;9.098;2023-09-19T01:00:38;5.57;;;2.70;;
16892;SDS011;8563;52.242;9.098;2023-09-19T01:03:14;5.33;;;2.63;;
16892;SDS011;8563;52.242;9.098;2023-09-19T01:05:48;5.60;;;2.70;;
16892;SDS011;8563;52.242;9.098;2023-09-19T01:08:22;4.20;;;2.70;;
16892;SDS011;8563;52.242;9.098;2023-09-19T01:11:01;2.83;;;2.10;;
16892;SDS011;8563;52.242;9.098;2023-09-19T01:13:39;3.87;;;2.70;;
16892;SDS011;8563;52.242;9.098;2023-09-19T01:16:16;3.83;;;2.70;;
16892;SDS011;8563;52.242;9.098;2023-09-19T01:18:52;8.93;;;2.85;;
16892;SDS011;8563;52.242;9.098;2023-09-19T01:21:26;4.63;;;2.70;;
16892;SDS011;8563;52.242;9.098;2023-09-19T01:24:07;5.82;;;2.42;;
16892;SDS011;8563;52.242;9.098;2023-09-19T01:26:48;6.10;;;2.80;;
16892;SDS011;8563;52.242;9.098;2023-09-19T01:29:26;7.78;;;3.30;;
16892;SDS011;8563;52.242;9.098;2023-09-19T01:32:08;5.72;;;2.42;;
16892;SDS011;8563;52.242;9.098;2023-09-19T01:34:43;3.77;;;3.13;;
16892;SDS011;8563;52.242;9.098;2023-09-19T01:37:17;3.50;;;2.40;;
16892;SDS011;8563;52.242;9.098;2023-09-19T01:39:51;7.27;;;3.00;;
16892;SDS011;8563;52.242;9.098;2023-09-19T01:42:26;4.07;;;2.30;;
16892;SDS011;8563;52.242;9.098;2023-09-19T01:45:03;5.93;;;3.07;;
16892;SDS011;8563;52.242;9.098;2023-09-19T01:47:41;6.27;;;2.50;;
16892;SDS011;8563;52.242;9.098;2023-09-19T01:50:17;5.60;;;2.80;;
16892;SDS011;8563;52.242;9.098;2023-09-19T01:52:54;4.33;;;2.63;;
16892;SDS011;8563;52.242;9.098;2023-09-19T01:55:26;7.10;;;3.33;;
16892;SDS011;8563;52.242;9.098;2023-09-19T01:58:04;4.93;;;2.97;;
16892;SDS011;8563;52.242;9.098;2023-09-19T02:00:38;9.23;;;3.53;;
16892;SDS011;8563;52.242;9.098;2023-09-19T02:03:13;5.43;;;3.03;;
16892;SDS011;8563;52.242;9.098;2023-09-19T02:05:48;5.88;;;3.03;;
16892;SDS011;8563;52.242;9.098;2023-09-19T02:08:22;5.67;;;3.03;;
16892;SDS011;8563;52.242;9.098;2023-09-19T02:10:55;6.90;;;3.23;;
16892;SDS011;8563;52.242;9.098;2023-09-19T02:13:27;6.90;;;3.03;;
16892;SDS011;8563;52.242;9.098;2023-09-19T02:16:02;4.50;;;2.77;;
16892;SDS011;8563;52.242;9.098;2023-09-19T02:18:36;3.75;;;2.42;;
16892;SDS011;8563;52.242;9.098;2023-09-19T02:21:09;6.07;;;2.87;;
16892;SDS011;8563;52.242;9.098;2023-09-19T02:23:42;6.13;;;3.03;;
16892;SDS011;8563;52.242;9.098;2023-09-19T02:26:16;7.83;;;2.93;;
16892;SDS011;8563;52.242;9.098;2023-09-19T02:28:51;7.73;;;2.67;;
16892;SDS011;8563;52.242;9.098;2023-09-19T02:31:24;6.37;;;2.60;;
16892;SDS011;8563;52.242;9.098;2023-09-19T02:34:01;6.53;;;2.50;;
16892;SDS011;8563;52.242;9.098;2023-09-19T02:36:34;9.17;;;2.83;;
16892;SDS011;8563;52.242;9.098;2023-09-19T02:39:06;6.60;;;2.53;;
16892;SDS011;8563;52.242;9.098;2023-09-19T02:41:39;5.47;;;2.37;;
16892;SDS011;8563;52.242;9.098;2023-09-19T02:44:12;4.17;;;2.27;;
16892;SDS011;8563;52.242;9.098;2023-09-19T02:46:44;6.97;;;2.60;;
16892;SDS011;8563;52.242;9.098;2023-09-19T02:49:18;6.83;;;2.30;;
16892;SDS011;8563;52.242;9.098;2023-09-19T02:51:51;8.97;;;2.40;;
16892;SDS011;8563;52.242;9.098;2023-09-19T02:54:24;7.03;;;2.30;;
16892;SDS011;8563;52.242;9.098;2023-09-19T02:56:56;6.43;;;2.47;;
16892;SDS011;8563;52.242;9.098;2023-09-19T02:59:29;5.77;;;2.30;;
16892;SDS011;8563;52.242;9.098;2023-09-19T03:02:04;7.00;;;2.40;;
16892;SDS011;8563;52.242;9.098;2023-09-19T03:04:38;6.37;;;2.60;;
16892;SDS011;8563;52.242;9.098;2023-09-19T03:07:10;6.23;;;2.17;;
16892;SDS011;8563;52.242;9.098;2023-09-19T03:09:43;3.73;;;2.30;;
16892;SDS011;8563;52.242;9.098;2023-09-19T03:12:15;8.52;;;2.33;;
16892;SDS011;8563;52.242;9.098;2023-09-19T03:14:48;5.80;;;2.40;;
16892;SDS011;8563;52.242;9.098;2023-09-19T03:17:22;6.77;;;2.00;;
16892;SDS011;8563;52.242;9.098;2023-09-19T03:19:56;5.68;;;2.08;;
16892;SDS011;8563;52.242;9.098;2023-09-19T03:22:29;10.18;;;2.15;;
16892;SDS011;8563;52.242;9.098;2023-09-19T03:25:03;7.10;;;1.87;;
16892;SDS011;8563;52.242;9.098;2023-09-19T03:27:39;4.03;;;1.70;;
16892;SDS011;8563;52.242;9.098;2023-09-19T03:30:13;6.18;;;2.13;;
16892;SDS011;8563;52.242;9.098;2023-09-19T03:32:47;6.65;;;2.20;;
16892;SDS011;8563;52.242;9.098;2023-09-19T03:35:22;3.67;;;1.80;;
16892;SDS011;8563;52.242;9.098;2023-09-19T03:37:55;5.20;;;1.90;;
16892;SDS011;8563;52.242;9.098;2023-09-19T03:40:28;5.20;;;2.23;;
16892;SDS011;8563;52.242;9.098;2023-09-19T03:43:00;5.63;;;2.27;;
16892;SDS011;8563;52.242;9.098;2023-09-19T03:45:33;9.10;;;2.88;;
16892;SDS011;8563;52.242;9.098;2023-09-19T03:48:08;4.07;;;1.93;;
16892;SDS011;8563;52.242;9.098;2023-09-19T03:50:42;6.20;;;2.23;;
16892;SDS011;8563;52.242;9.098;2023-09-19T03:53:15;6.20;;;2.40;;
16892;SDS011;8563;52.242;9.098;2023-09-19T03:55:47;7.63;;;2.40;;
16892;SDS011;8563;52.242;9.098;2023-09-19T03:58:21;8.67;;;2.53;;
16892;SDS011;8563;52.242;9.098;2023-09-19T04:00:54;6.73;;;2.53;;
16892;SDS011;8563;52.242;9.098;2023-09-19T04:03:28;5.77;;;2.13;;
16892;SDS011;8563;52.242;9.098;2023-09-19T04:06:06;6.57;;;2.47;;
16892;SDS011;8563;52.242;9.098;2023-09-19T04:08:39;7.10;;;2.50;;
16892;SDS011;8563;52.242;9.098;2023-09-19T04:11:12;8.33;;;2.40;;
16892;SDS011;8563;52.242;9.098;2023-09-19T04:13:44;3.90;;;2.00;;
16892;SDS011;8563;52.242;9.098;2023-09-19T04:16:16;8.63;;;2.80;;
16892;SDS011;8563;52.242;9.098;2023-09-19T04:18:49;7.20;;;3.23;;
16892;SDS011;8563;52.242;9.098;2023-09-19T04:21:23;7.33;;;2.93;;
16892;SDS011;8563;52.242;9.098;2023-09-19T04:23:56;5.80;;;3.00;;
16892;SDS011;8563;52.242;9.098;2023-09-19T04:26:29;4.73;;;2.90;;
16892;SDS011;8563;52.242;9.098;2023-09-19T04:29:01;7.40;;;3.30;;
16892;SDS011;8563;52.242;9.098;2023-09-19T04:31:36;7.93;;;3.20;;
16892;SDS011;8563;52.242;9.098;2023-09-19T04:34:14;8.67;;;3.13;;
16892;SDS011;8563;52.242;9.098;2023-09-19T04:36:48;5.77;;;3.03;;
16892;SDS011;8563;52.242;9.098;2023-09-19T04:39:21;7.77;;;3.00;;
16892;SDS011;8563;52.242;9.098;2023-09-19T04:41:55;6.83;;;3.00;;
16892;SDS011;8563;52.242;9.098;2023-09-19T04:44:29;7.27;;;3.00;;
16892;SDS011;8563;52.242;9.098;2023-09-19T04:47:01;8.57;;;3.50;;
16892;SDS011;8563;52.242;9.098;2023-09-19T04:49:34;5.67;;;2.60;;
16892;SDS011;8563;52.242;9.098;2023-09-19T04:52:07;6.63;;;2.93;;
16892;SDS011;8563;52.242;9.098;2023-09-19T04:54:40;6.13;;;2.87;;
16892;SDS011;8563;52.242;9.098;2023-09-19T04:57:12;5.60;;;2.70;;
16892;SDS011;8563;52.242;9.098;2023-09-19T04:59:45;5.80;;;3.10;;
16892;SDS011;8563;52.242;9.098;2023-09-19T05:02:17;8.23;;;2.90;;
16892;SDS011;8563;52.242;9.098;2023-09-19T05:04:51;6.00;;;2.90;;
16892;SDS011;8563;52.242;9.098;2023-09-19T05:07:25;9.70;;;3.43;;
16892;SDS011;8563;52.242;9.098;2023-09-19T05:09:57;9.33;;;3.83;;
16892;SDS011;8563;52.242;9.098;2023-09-19T05:12:30;9.63;;;3.43;;
16892;SDS011;8563;52.242;9.098;2023-09-19T05:15:02;6.93;;;3.10;;
16892;SDS011;8563;52.242;9.098;2023-09-19T05:17:35;8.13;;;3.47;;
16892;SDS011;8563;52.242;9.098;2023-09-19T05:20:09;9.57;;;3.07;;
16892;SDS011;8563;52.242;9.098;2023-09-19T05:22:45;5.97;;;3.07;;
16892;SDS011;8563;52.242;9.098;2023-09-19T05:25:18;7.37;;;3.50;;
16892;SDS011;8563;52.242;9.098;2023-09-19T05:27:52;9.10;;;3.20;;
16892;SDS011;8563;52.242;9.098;2023-09-19T05:30:25;9.97;;;3.60;;
16892;SDS011;8563;52.242;9.098;2023-09-19T05:32:59;11.83;;;3.40;;
16892;SDS011;8563;52.242;9.098;2023-09-19T05:35:32;9.93;;;2.80;;
16892;SDS011;8563;52.242;9.098;2023-09-19T05:38:06;10.50;;;2.80;;
16892;SDS011;8563;52.242;9.098;2023-09-19T05:40:39;8.57;;;2.43;;
16892;SDS011;8563;52.242;9.098;2023-09-19T05:43:13;6.80;;;2.27;;
16892;SDS011;8563;52.242;9.098;2023-09-19T05:45:45;8.30;;;2.43;;
16892;SDS011;8563;52.242;9.098;2023-09-19T05:48:18;5.47;;;2.23;;
16892;SDS011;8563;52.242;9.098;2023-09-19T05:50:51;8.57;;;2.37;;
16892;SDS011;8563;52.242;9.098;2023-09-19T05:53:25;7.93;;;2.20;;
16892;SDS011;8563;52.242;9.098;2023-09-19T05:55:57;5.60;;;2.33;;
16892;SDS011;8563;52.242;9.098;2023-09-19T05:58:31;9.20;;;2.63;;
16892;SDS011;8563;52.242;9.098;2023-09-19T06:01:03;6.50;;;2.20;;
16892;SDS011;8563;52.242;9.098;2023-09-19T06:03:37;7.87;;;2.70;;
16892;SDS011;8563;52.242;9.098;2023-09-19T06:06:10;5.43;;;2.20;;
16892;SDS011;8563;52.242;9.098;2023-09-19T06:08:44;8.27;;;2.37;;
16892;SDS011;8563;52.242;9.098;2023-09-19T06:11:17;7.30;;;2.47;;
16892;SDS011;8563;52.242;9.098;2023-09-19T06:13:50;7.80;;;2.33;;
16892;SDS011;8563;52.242;9.098;2023-09-19T06:16:23;7.43;;;2.40;;
16892;SDS011;8563;52.242;9.098;2023-09-19T06:18:56;8.53;;;2.40;;
16892;SDS011;8563;52.242;9.098;2023-09-19T06:21:30;7.37;;;2.33;;
16892;SDS011;8563;52.242;9.098;2023-09-19T06:24:04;6.77;;;2.10;;
16892;SDS011;8563;52.242;9.098;2023-09-19T06:26:36;8.27;;;2.43;;
16892;SDS011;8563;52.242;9.098;2023-09-19T06:29:09;9.87;;;2.33;;
16892;SDS011;8563;52.242;9.098;2023-09-19T06:31:41;6.57;;;2.63;;
16892;SDS011;8563;52.242;9.098;2023-09-19T06:34:14;5.47;;;2.30;;
16892;SDS011;8563;52.242;9.098;2023-09-19T06:36:47;6.15;;;1.85;;
16892;SDS011;8563;52.242;9.098;2023-09-19T06:39:21;5.17;;;1.80;;
16892;SDS011;8563;52.242;9.098;2023-09-19T06:41:56;7.40;;;2.08;;
16892;SDS011;8563;52.242;9.098;2023-09-19T06:44:28;9.33;;;2.60;;
16892;SDS011;8563;52.242;9.098;2023-09-19T06:47:02;4.93;;;2.03;;
16892;SDS011;8563;52.242;9.098;2023-09-19T06:49:35;9.77;;;2.20;;
16892;SDS011;8563;52.242;9.098;2023-09-19T06:52:07;7.50;;;2.37;;
16892;SDS011;8563;52.242;9.098;2023-09-19T06:54:42;5.63;;;2.33;;
16892;SDS011;8563;52.242;9.098;2023-09-19T06:57:14;7.03;;;1.90;;
16892;SDS011;8563;52.242;9.098;2023-09-19T06:59:46;7.22;;;2.22;;
16892;SDS011;8563;52.242;9.098;2023-09-19T07:02:19;5.60;;;2.00;;
16892;SDS011;8563;52.242;9.098;2023-09-19T07:04:52;5.82;;;2.22;;
16892;SDS011;8563;52.242;9.098;2023-09-19T07:07:24;5.47;;;1.90;;
16892;SDS011;8563;52.242;9.098;2023-09-19T07:09:58;10.30;;;2.30;;
16892;SDS011;8563;52.242;9.098;2023-09-19T07:12:30;7.07;;;2.27;;
16892;SDS011;8563;52.242;9.098;2023-09-19T07:15:03;7.90;;;2.13;;
16892;SDS011;8563;52.242;9.098;2023-09-19T07:17:36;7.27;;;2.27;;
16892;SDS011;8563;52.242;9.098;2023-09-19T07:20:09;6.40;;;2.28;;
16892;SDS011;8563;52.242;9.098;2023-09-19T07:22:46;8.87;;;2.17;;
16892;SDS011;8563;52.242;9.098;2023-09-19T07:25:22;7.70;;;2.25;;
16892;SDS011;8563;52.242;9.098;2023-09-19T07:27:54;6.17;;;2.00;;
16892;SDS011;8563;52.242;9.098;2023-09-19T07:30:30;5.90;;;2.00;;
16892;SDS011;8563;52.242;9.098;2023-09-19T07:33:02;5.63;;;1.67;;
16892;SDS011;8563;52.242;9.098;2023-09-19T07:35:35;6.95;;;2.67;;
16892;SDS011;8563;52.242;9.098;2023-09-19T07:38:09;6.57;;;2.10;;
16892;SDS011;8563;52.242;9.098;2023-09-19T07:40:43;6.87;;;2.30;;
16892;SDS011;8563;52.242;9.098;2023-09-19T07:43:16;5.63;;;1.92;;
16892;SDS011;8563;52.242;9.098;2023-09-19T07:45:48;7.90;;;1.80;;
16892;SDS011;8563;52.242;9.098;2023-09-19T07:48:20;4.90;;;2.17;;
16892;SDS011;8563;52.242;9.098;2023-09-19T07:50:54;4.00;;;1.77;;
16892;SDS011;8563;52.242;9.098;2023-09-19T07:53:27;5.03;;;2.13;;
16892;SDS011;8563;52.242;9.098;2023-09-19T07:56:05;6.55;;;2.30;;
16892;SDS011;8563;52.242;9.098;2023-09-19T07:58:39;4.80;;;1.98;;
16892;SDS011;8563;52.242;9.098;2023-09-19T08:01:13;4.97;;;1.70;;
16892;SDS011;8563;52.242;9.098;2023-09-19T08:03:47;7.57;;;2.60;;
16892;SDS011;8563;52.242;9.098;2023-09-19T08:06:19;8.10;;;3.30;;
16892;SDS011;8563;52.242;9.098;2023-09-19T08:08:52;6.78;;;1.90;;
16892;SDS011;8563;52.242;9.098;2023-09-19T08:11:27;5.32;;;1.90;;
16892;SDS011;8563;52.242;9.098;2023-09-19T08:14:01;6.25;;;1.95;;
16892;SDS011;8563;52.242;9.098;2023-09-19T08:16:36;8.25;;;2.03;;
16892;SDS011;8563;52.242;9.098;2023-09-19T08:19:09;7.47;;;2.00;;
16892;SDS011;8563;52.242;9.098;2023-09-19T08:21:42;4.65;;;2.25;;
16892;SDS011;8563;52.242;9.098;2023-09-19T08:24:17;8.48;;;2.13;;
16892;SDS011;8563;52.242;9.098;2023-09-19T08:26:51;4.30;;;1.67;;
16892;SDS011;8563;52.242;9.098;2023-09-19T08:29:25;6.22;;;2.22;;
16892;SDS011;8563;52.242;9.098;2023-09-19T08:31:57;4.50;;;1.85;;
16892;SDS011;8563;52.242;9.098;2023-09-19T08:34:30;5.35;;;1.90;;
16892;SDS011;8563;52.242;9.098;2023-09-19T08:37:04;6.40;;;2.70;;
16892;SDS011;8563;52.242;9.098;2023-09-19T08:39:37;4.95;;;1.88;;
16892;SDS011;8563;52.242;9.098;2023-09-19T08:42:11;4.60;;;1.95;;
16892;SDS011;8563;52.242;9.098;2023-09-19T08:44:43;6.57;;;2.08;;
16892;SDS011;8563;52.242;9.098;2023-09-19T08:47:16;6.85;;;1.80;;
16892;SDS011;8563;52.242;9.098;2023-09-19T08:49:53;6.10;;;2.00;;
16892;SDS011;8563;52.242;9.098;2023-09-19T08:52:32;8.70;;;2.38;;
16892;SDS011;8563;52.242;9.098;2023-09-19T08:55:05;5.82;;;1.70;;
16892;SDS011;8563;52.242;9.098;2023-09-19T08:57:41;8.40;;;2.47;;
16892;SDS011;8563;52.242;9.098;2023-09-19T09:00:19;4.82;;;2.00;;
16892;SDS011;8563;52.242;9.098;2023-09-19T09:02:53;8.48;;;2.15;;
16892;SDS011;8563;52.242;9.098;2023-09-19T09:05:26;3.67;;;1.63;;
16892;SDS011;8563;52.242;9.098;2023-09-19T09:08:00;6.90;;;2.28;;
16892;SDS011;8563;52.242;9.098;2023-09-19T09:10:34;5.65;;;1.67;;
16892;SDS011;8563;52.242;9.098;2023-09-19T09:13:07;6.47;;;1.77;;
16892;SDS011;8563;52.242;9.098;2023-09-19T09:15:44;7.85;;;1.95;;
16892;SDS011;8563;52.242;9.098;2023-09-19T09:18:17;5.30;;;2.03;;
16892;SDS011;8563;52.242;9.098;2023-09-19T09:20:50;7.93;;;2.58;;
16892;SDS011;8563;52.242;9.098;2023-09-19T09:23:23;8.43;;;2.35;;
16892;SDS011;8563;52.242;9.098;2023-09-19T09:25:56;7.03;;;2.42;;
16892;SDS011;8563;52.242;9.098;2023-09-19T09:28:34;7.85;;;2.40;;
16892;SDS011;8563;52.242;9.098;2023-09-19T09:31:12;5.18;;;2.08;;
16892;SDS011;8563;52.242;9.098;2023-09-19T09:33:53;6.45;;;2.03;;
16892;SDS011;8563;52.242;9.098;2023-09-19T09:36:36;6.82;;;2.28;;
16892;SDS011;8563;52.242;9.098;2023-09-19T09:39:09;7.72;;;2.17;;
16892;SDS011;8563;52.242;9.098;2023-09-19T09:41:49;5.78;;;1.75;;
16892;SDS011;8563;52.242;9.098;2023-09-19T09:44:22;6.93;;;1.95;;
16892;SDS011;8563;52.242;9.098;2023-09-19T09:46:55;11.27;;;2.22;;
16892;SDS011;8563;52.242;9.098;2023-09-19T09:49:50;6.10;;;1.83;;
16892;SDS011;8563;52.242;9.098;2023-09-19T09:52:24;5.55;;;2.03;;
16892;SDS011;8563;52.242;9.098;2023-09-19T09:54:58;7.18;;;1.95;;
16892;SDS011;8563;52.242;9.098;2023-09-19T09:57:35;6.07;;;2.40;;
16892;SDS011;8563;52.242;9.098;2023-09-19T10:00:13;10.35;;;2.55;;
16892;SDS011;8563;52.242;9.098;2023-09-19T10:02:50;8.65;;;2.47;;
16892;SDS011;8563;52.242;9.098;2023-09-19T10:05:23;7.20;;;2.20;;
16892;SDS011;8563;52.242;9.098;2023-09-19T10:08:10;5.10;;;2.40;;
16892;SDS011;8563;52.242;9.098;2023-09-19T10:10:43;5.30;;;2.00;;
16892;SDS011;8563;52.242;9.098;2023-09-19T10:13:24;7.53;;;2.35;;
16892;SDS011;8563;52.242;9.098;2023-09-19T10:16:00;5.55;;;2.13;;
16892;SDS011;8563;52.242;9.098;2023-09-19T10:18:40;6.97;;;2.03;;
16892;SDS011;8563;52.242;9.098;2023-09-19T10:21:14;9.00;;;2.58;;
16892;SDS011;8563;52.242;9.098;2023-09-19T10:23:52;5.72;;;2.88;;
16892;SDS011;8563;52.242;9.098;2023-09-19T10:26:27;6.13;;;2.85;;
16892;SDS011;8563;52.242;9.098;2023-09-19T10:29:01;6.65;;;2.33;;
16892;SDS011;8563;52.242;9.098;2023-09-19T10:31:39;4.57;;;2.05;;
16892;SDS011;8563;52.242;9.098;2023-09-19T10:34:17;6.15;;;1.92;;
16892;SDS011;8563;52.242;9.098;2023-09-19T10:36:50;5.88;;;2.22;;
16892;SDS011;8563;52.242;9.098;2023-09-19T10:39:23;6.93;;;2.20;;
16892;SDS011;8563;52.242;9.098;2023-09-19T10:41:55;7.00;;;2.45;;
16892;SDS011;8563;52.242;9.098;2023-09-19T10:44:29;5.97;;;1.90;;
16892;SDS011;8563;52.242;9.098;2023-09-19T10:47:04;5.63;;;1.95;;
16892;SDS011;8563;52.242;9.098;2023-09-19T10:49:42;5.88;;;2.15;;
16892;SDS011;8563;52.242;9.098;2023-09-19T10:52:17;7.57;;;2.38;;
16892;SDS011;8563;52.242;9.098;2023-09-19T10:54:51;4.10;;;1.80;;
16892;SDS011;8563;52.242;9.098;2023-09-19T10:57:27;5.65;;;2.20;;
16892;SDS011;8563;52.242;9.098;2023-09-19T11:00:00;5.00;;;1.80;;
16892;SDS011;8563;52.242;9.098;2023-09-19T11:02:43;5.57;;;1.83;;
16892;SDS011;8563;52.242;9.098;2023-09-19T11:05:16;5.03;;;2.17;;
16892;SDS011;8563;52.242;9.098;2023-09-19T11:07:57;5.78;;;2.17;;
16892;SDS011;8563;52.242;9.098;2023-09-19T11:10:46;4.78;;;2.10;;
16892;SDS011;8563;52.242;9.098;2023-09-19T11:13:26;5.20;;;2.10;;
16892;SDS011;8563;52.242;9.098;2023-09-19T11:16:04;4.00;;;1.77;;
16892;SDS011;8563;52.242;9.098;2023-09-19T11:18:54;6.03;;;2.00;;
16892;SDS011;8563;52.242;9.098;2023-09-19T11:21:51;4.00;;;1.83;;
16892;SDS011;8563;52.242;9.098;2023-09-19T11:24:30;6.28;;;2.15;;
16892;SDS011;8563;52.242;9.098;2023-09-19T11:27:10;6.15;;;2.00;;
16892;SDS011;8563;52.242;9.098;2023-09-19T11:29:44;5.57;;;1.80;;
16892;SDS011;8563;52.242;9.098;2023-09-19T11:32:17;7.72;;;1.92;;
16892;SDS011;8563;52.242;9.098;2023-09-19T11:35:13;6.88;;;2.22;;
16892;SDS011;8563;52.242;9.098;2023-09-19T11:40:44;5.55;;;2.25;;
16892;SDS011;8563;52.242;9.098;2023-09-19T11:43:29;5.03;;;2.08;;
16892;SDS011;8563;52.242;9.098;2023-09-19T11:46:10;6.13;;;1.92;;
16892;SDS011;8563;52.242;9.098;2023-09-19T11:48:47;5.63;;;2.20;;
16892;SDS011;8563;52.242;9.098;2023-09-19T11:51:21;7.22;;;2.55;;
16892;SDS011;8563;52.242;9.098;2023-09-19T11:53:57;6.53;;;2.00;;
16892;SDS011;8563;52.242;9.098;2023-09-19T11:56:30;4.72;;;2.15;;
16892;SDS011;8563;52.242;9.098;2023-09-19T11:59:03;5.78;;;2.10;;
16892;SDS011;8563;52.242;9.098;2023-09-19T12:01:35;4.55;;;2.03;;
16892;SDS011;8563;52.242;9.098;2023-09-19T12:04:11;4.43;;;2.08;;
16892;SDS011;8563;52.242;9.098;2023-09-19T12:06:46;7.68;;;2.35;;
16892;SDS011;8563;52.242;9.098;2023-09-19T12:09:28;3.92;;;1.52;;
16892;SDS011;8563;52.242;9.098;2023-09-19T12:12:01;5.88;;;2.03;;
16892;SDS011;8563;52.242;9.098;2023-09-19T12:14:34;6.22;;;1.90;;
16892;SDS011;8563;52.242;9.098;2023-09-19T12:17:06;3.97;;;1.90;;
16892;SDS011;8563;52.242;9.098;2023-09-19T12:19:40;7.10;;;2.75;;
16892;SDS011;8563;52.242;9.098;2023-09-19T12:22:14;5.95;;;2.08;;
16892;SDS011;8563;52.242;9.098;2023-09-19T12:24:48;7.82;;;2.60;;
16892;SDS011;8563;52.242;9.098;2023-09-19T12:27:21;5.50;;;2.55;;
16892;SDS011;8563;52.242;9.098;2023-09-19T12:29:56;6.45;;;2.22;;
16892;SDS011;8563;52.242;9.098;2023-09-19T12:32:38;5.72;;;2.38;;
16892;SDS011;8563;52.242;9.098;2023-09-19T12:35:26;4.30;;;1.98;;
16892;SDS011;8563;52.242;9.098;2023-09-19T12:38:03;5.22;;;1.92;;
16892;SDS011;8563;52.242;9.098;2023-09-19T12:40:36;6.68;;;2.17;;
16892;SDS011;8563;52.242;9.098;2023-09-19T12:43:09;5.40;;;2.17;;
16892;SDS011;8563;52.242;9.098;2023-09-19T12:45:45;4.57;;;2.25;;
16892;SDS011;8563;52.242;9.098;2023-09-19T12:48:19;4.95;;;2.13;;
16892;SDS011;8563;52.242;9.098;2023-09-19T12:51:04;5.72;;;2.30;;
16892;SDS011;8563;52.242;9.098;2023-09-19T12:53:40;9.95;;;2.40;;
16892;SDS011;8563;52.242;9.098;2023-09-19T12:56:13;5.22;;;2.00;;
16892;SDS011;8563;52.242;9.098;2023-09-19T12:58:50;6.00;;;2.10;;
16892;SDS011;8563;52.242;9.098;2023-09-19T13:01:24;7.68;;;2.30;;
16892;SDS011;8563;52.242;9.098;2023-09-19T13:04:10;5.47;;;1.90;;
16892;SDS011;8563;52.242;9.098;2023-09-19T13:06:45;4.65;;;2.00;;
16892;SDS011;8563;52.242;9.098;2023-09-19T13:09:21;2.78;;;1.60;;
16892;SDS011;8563;52.242;9.098;2023-09-19T13:11:55;6.55;;;2.30;;
16892;SDS011;8563;52.242;9.098;2023-09-19T13:14:29;5.22;;;1.92;;
16892;SDS011;8563;52.242;9.098;2023-09-19T13:17:06;6.50;;;2.10;;
16892;SDS011;8563;52.242;9.098;2023-09-19T13:19:46;7.32;;;2.45;;
16892;SDS011;8563;52.242;9.098;2023-09-19T13:22:39;5.03;;;1.95;;
16892;SDS011;8563;52.242;9.098;2023-09-19T13:25:14;7.88;;;2.60;;
16892;SDS011;8563;52.242;9.098;2023-09-19T13:27:48;5.88;;;2.08;;
16892;SDS011;8563;52.242;9.098;2023-09-19T13:30:22;4.65;;;2.33;;
16892;SDS011;8563;52.242;9.098;2023-09-19T13:33:04;4.35;;;2.05;;
16892;SDS011;8563;52.242;9.098;2023-09-19T13:35:38;5.40;;;2.10;;
16892;SDS011;8563;52.242;9.098;2023-09-19T13:38:11;5.50;;;2.10;;
16892;SDS011;8563;52.242;9.098;2023-09-19T13:40:45;5.60;;;1.88;;
16892;SDS011;8563;52.242;9.098;2023-09-19T13:43:17;8.55;;;2.72;;
16892;SDS011;8563;52.242;9.098;2023-09-19T13:45:50;6.13;;;2.20;;
16892;SDS011;8563;52.242;9.098;2023-09-19T13:48:22;5.13;;;2.20;;
16892;SDS011;8563;52.242;9.098;2023-09-19T13:50:54;6.28;;;1.90;;
16892;SDS011;8563;52.242;9.098;2023-09-19T13:53:27;6.05;;;2.40;;
16892;SDS011;8563;52.242;9.098;2023-09-19T13:56:01;6.70;;;1.98;;
16892;SDS011;8563;52.242;9.098;2023-09-19T13:58:33;5.15;;;2.35;;
16892;SDS011;8563;52.242;9.098;2023-09-19T14:01:06;4.60;;;2.00;;
16892;SDS011;8563;52.242;9.098;2023-09-19T14:03:42;4.85;;;1.92;;
16892;SDS011;8563;52.242;9.098;2023-09-19T14:06:17;3.90;;;1.70;;
16892;SDS011;8563;52.242;9.098;2023-09-19T14:08:49;2.83;;;1.70;;
16892;SDS011;8563;52.242;9.098;2023-09-19T14:11:24;4.65;;;1.83;;
16892;SDS011;8563;52.242;9.098;2023-09-19T14:13:57;6.60;;;2.00;;
16892;SDS011;8563;52.242;9.098;2023-09-19T14:16:30;3.03;;;1.40;;
16892;SDS011;8563;52.242;9.098;2023-09-19T14:19:03;2.95;;;1.70;;
16892;SDS011;8563;52.242;9.098;2023-09-19T14:21:38;3.60;;;1.60;;
16892;SDS011;8563;52.242;9.098;2023-09-19T14:24:11;5.68;;;1.92;;
16892;SDS011;8563;52.242;9.098;2023-09-19T14:26:49;3.85;;;1.52;;
16892;SDS011;8563;52.242;9.098;2023-09-19T14:29:22;3.80;;;2.00;;
16892;SDS011;8563;52.242;9.098;2023-09-19T14:31:54;5.00;;;1.73;;
16892;SDS011;8563;52.242;9.098;2023-09-19T14:34:27;3.80;;;1.88;;
16892;SDS011;8563;52.242;9.098;2023-09-19T14:37:00;3.10;;;1.50;;
16892;SDS011;8563;52.242;9.098;2023-09-19T14:39:34;4.80;;;1.90;;
16892;SDS011;8563;52.242;9.098;2023-09-19T14:42:10;2.88;;;1.48;;
16892;SDS011;8563;52.242;9.098;2023-09-19T14:44:45;3.90;;;1.40;;
16892;SDS011;8563;52.242;9.098;2023-09-19T14:47:18;6.53;;;1.77;;
16892;SDS011;8563;52.242;9.098;2023-09-19T14:49:51;4.30;;;1.73;;
16892;SDS011;8563;52.242;9.098;2023-09-19T14:52:23;5.18;;;1.73;;
16892;SDS011;8563;52.242;9.098;2023-09-19T14:54:58;4.20;;;1.83;;
16892;SDS011;8563;52.242;9.098;2023-09-19T14:57:32;4.13;;;1.50;;
16892;SDS011;8563;52.242;9.098;2023-09-19T15:00:05;4.80;;;1.80;;
16892;SDS011;8563;52.242;9.098;2023-09-19T15:02:42;5.43;;;1.73;;
16892;SDS011;8563;52.242;9.098;2023-09-19T15:05:15;4.82;;;1.50;;
16892;SDS011;8563;52.242;9.098;2023-09-19T15:07:49;3.50;;;1.40;;
16892;SDS011;8563;52.242;9.098;2023-09-19T15:10:22;4.53;;;1.65;;
16892;SDS011;8563;52.242;9.098;2023-09-19T15:12:55;3.97;;;1.40;;
16892;SDS011;8563;52.242;9.098;2023-09-19T15:15:28;5.05;;;1.63;;
16892;SDS011;8563;52.242;9.098;2023-09-19T15:18:00;2.85;;;1.35;;
16892;SDS011;8563;52.242;9.098;2023-09-19T15:20:33;3.80;;;1.40;;
16892;SDS011;8563;52.242;9.098;2023-09-19T15:23:06;3.63;;;1.35;;
16892;SDS011;8563;52.242;9.098;2023-09-19T15:25:39;2.40;;;1.50;;
16892;SDS011;8563;52.242;9.098;2023-09-19T15:28:13;4.00;;;1.48;;
16892;SDS011;8563;52.242;9.098;2023-09-19T15:30:45;3.42;;;1.67;;
16892;SDS011;8563;52.242;9.098;2023-09-19T15:33:18;3.45;;;1.60;;
16892;SDS011;8563;52.242;9.098;2023-09-19T15:35:50;4.70;;;1.75;;
16892;SDS011;8563;52.242;9.098;2023-09-19T15:38:23;4.53;;;1.60;;
16892;SDS011;8563;52.242;9.098;2023-09-19T15:40:56;4.10;;;2.00;;
16892;SDS011;8563;52.242;9.098;2023-09-19T15:43:30;4.60;;;1.52;;
16892;SDS011;8563;52.242;9.098;2023-09-19T15:46:04;6.20;;;1.50;;
16892;SDS011;8563;52.242;9.098;2023-09-19T15:48:37;4.00;;;1.63;;